sensor_id;sensor_type;location;lat;lon;timestamp;pressure;altitude;pressure_sealevel;temperature;humidity
9257;BME280;4665;51.368;6.782;2023-03-13T00:03:42;100163.06;;;9.43;100.00
9257;BME280;4665;51.368;6.782;2023-03-13T00:06:08;100145.75;;;9.39;100.00
9257;BME280;4665;51.368;6.782;2023-03-13T00:08:33;100135.13;;;9.39;100.00
9257;BME280;4665;51.368;6.782;2023-03-13T00:11:04;100134.13;;;9.40;100.00
9257;BME280;4665;51.368;6.782;2023-03-13T00:13:29;100132.13;;;9.42;100.00
9257;BME280;4665;51.368;6.782;2023-03-13T00:16:06;100122.84;;;9.38;100.00
9257;BME280;4665;51.368;6.782;2023-03-13T00:18:32;100124.50;;;9.39;100.00
9257;BME280;4665;51.368;6.782;2023-03-13T00:20:59;100109.56;;;9.38;100.00
9257;BME280;4665;51.368;6.782;2023-03-13T00:23:25;100101.88;;;9.35;100.00
9257;BME280;4665;51.368;6.782;2023-03-13T00:26:02;100100.72;;;9.37;100.00
9257;BME280;4665;51.368;6.782;2023-03-13T00:28:30;100100.56;;;9.39;100.00
9257;BME280;4665;51.368;6.782;2023-03-13T00:31:07;100100.91;;;9.36;100.00
9257;BME280;4665;51.368;6.782;2023-03-13T00:33:34;100091.25;;;9.35;100.00
9257;BME280;4665;51.368;6.782;2023-03-13T00:36:00;100091.44;;;9.33;100.00
9257;BME280;4665;51.368;6.782;2023-03-13T00:38:27;100085.94;;;9.35;100.00
9257;BME280;4665;51.368;6.782;2023-03-13T00:41:09;100079.13;;;9.32;100.00
9257;BME280;4665;51.368;6.782;2023-03-13T00:43:37;100081.97;;;9.31;100.00
9257;BME280;4665;51.368;6.782;2023-03-13T00:46:03;100077.63;;;9.30;100.00
9257;BME280;4665;51.368;6.782;2023-03-13T00:48:29;100069.81;;;9.28;100.00
9257;BME280;4665;51.368;6.782;2023-03-13T00:50:55;100070.66;;;9.29;100.00
9257;BME280;4665;51.368;6.782;2023-03-13T00:53:21;100065.16;;;9.30;100.00
9257;BME280;4665;51.368;6.782;2023-03-13T00:55:54;100060.34;;;9.34;100.00
9257;BME280;4665;51.368;6.782;2023-03-13T00:58:21;100060.50;;;9.32;100.00
9257;BME280;4665;51.368;6.782;2023-03-13T01:00:46;100044.75;;;9.31;100.00
9257;BME280;4665;51.368;6.782;2023-03-13T01:03:12;100038.75;;;9.29;100.00
9257;BME280;4665;51.368;6.782;2023-03-13T01:05:37;100039.94;;;9.26;100.00
9257;BME280;4665;51.368;6.782;2023-03-13T01:08:03;100029.78;;;9.21;100.00
9257;BME280;4665;51.368;6.782;2023-03-13T01:10:29;100033.09;;;9.23;100.00
9257;BME280;4665;51.368;6.782;2023-03-13T01:12:55;100033.28;;;9.22;100.00
9257;BME280;4665;51.368;6.782;2023-03-13T01:15:23;100016.81;;;9.18;100.00
9257;BME280;4665;51.368;6.782;2023-03-13T01:17:48;100013.31;;;9.18;100.00
9257;BME280;4665;51.368;6.782;2023-03-13T01:20:14;100009.84;;;9.17;100.00
9257;BME280;4665;51.368;6.782;2023-03-13T01:22:39;100010.34;;;9.13;100.00
9257;BME280;4665;51.368;6.782;2023-03-13T01:25:05;99997.38;;;9.18;100.00
9257;BME280;4665;51.368;6.782;2023-03-13T01:27:31;99995.75;;;9.17;100.00
9257;BME280;4665;51.368;6.782;2023-03-13T01:29:56;99994.06;;;9.16;100.00
9257;BME280;4665;51.368;6.782;2023-03-13T01:32:22;99989.75;;;9.15;100.00
9257;BME280;4665;51.368;6.782;2023-03-13T01:34:47;99997.72;;;9.15;100.00
9257;BME280;4665;51.368;6.782;2023-03-13T01:37:13;99981.94;;;9.13;100.00
9257;BME280;4665;51.368;6.782;2023-03-13T01:39:39;99974.31;;;9.10;100.00
9257;BME280;4665;51.368;6.782;2023-03-13T01:42:05;99974.31;;;9.10;100.00
9257;BME280;4665;51.368;6.782;2023-03-13T01:44:51;99968.31;;;9.16;100.00
9257;BME280;4665;51.368;6.782;2023-03-13T01:47:17;99967.00;;;9.12;100.00
9257;BME280;4665;51.368;6.782;2023-03-13T01:49:43;99967.31;;;9.09;100.00
9257;BME280;4665;51.368;6.782;2023-03-13T01:52:14;99958.66;;;9.07;100.00
9257;BME280;4665;51.368;6.782;2023-03-13T01:57:18;99949.03;;;9.06;100.00
9257;BME280;4665;51.368;6.782;2023-03-13T02:02:16;99942.72;;;8.99;100.00
9257;BME280;4665;51.368;6.782;2023-03-13T02:04:52;99923.81;;;8.94;100.00
9257;BME280;4665;51.368;6.782;2023-03-13T02:07:24;99927.28;;;8.94;100.00
9257;BME280;4665;51.368;6.782;2023-03-13T02:09:52;99921.66;;;8.89;100.00
9257;BME280;4665;51.368;6.782;2023-03-13T02:12:23;99919.81;;;8.90;100.00
9257;BME280;4665;51.368;6.782;2023-03-13T02:14:51;99907.34;;;8.90;100.00
9257;BME280;4665;51.368;6.782;2023-03-13T02:17:18;99914.16;;;8.93;100.00
9257;BME280;4665;51.368;6.782;2023-03-13T02:19:48;99905.38;;;8.92;100.00
9257;BME280;4665;51.368;6.782;2023-03-13T02:23:19;99892.59;;;8.96;100.00
9257;BME280;4665;51.368;6.782;2023-03-13T02:25:41;99888.59;;;9.00;100.00
9257;BME280;4665;51.368;6.782;2023-03-13T02:28:16;99896.41;;;9.01;100.00
9257;BME280;4665;51.368;6.782;2023-03-13T02:30:43;99888.59;;;9.00;100.00
9257;BME280;4665;51.368;6.782;2023-03-13T02:33:13;99888.91;;;9.05;100.00
9257;BME280;4665;51.368;6.782;2023-03-13T02:35:41;99870.66;;;9.02;100.00
9257;BME280;4665;51.368;6.782;2023-03-13T02:38:09;99878.13;;;9.06;100.00
9257;BME280;4665;51.368;6.782;2023-03-13T02:40:41;99856.72;;;9.08;100.00
9257;BME280;4665;51.368;6.782;2023-03-13T02:43:13;99858.38;;;9.09;100.00
9257;BME280;4665;51.368;6.782;2023-03-13T02:45:39;99853.88;;;9.10;100.00
9257;BME280;4665;51.368;6.782;2023-03-13T02:48:05;99848.06;;;9.14;100.00
9257;BME280;4665;51.368;6.782;2023-03-13T02:50:31;99844.44;;;9.15;100.00
9257;BME280;4665;51.368;6.782;2023-03-13T02:53:02;99854.41;;;9.21;100.00
9257;BME280;4665;51.368;6.782;2023-03-13T02:55:39;99849.91;;;9.22;100.00
9257;BME280;4665;51.368;6.782;2023-03-13T02:58:06;99846.59;;;9.20;100.00
9257;BME280;4665;51.368;6.782;2023-03-13T03:00:32;99839.75;;;9.25;100.00
9257;BME280;4665;51.368;6.782;2023-03-13T03:02:57;99825.97;;;9.30;100.00
9257;BME280;4665;51.368;6.782;2023-03-13T03:05:23;99825.78;;;9.32;100.00
9257;BME280;4665;51.368;6.782;2023-03-13T03:07:49;99808.00;;;9.32;100.00
9257;BME280;4665;51.368;6.782;2023-03-13T03:10:16;99805.88;;;9.36;100.00
9257;BME280;4665;51.368;6.782;2023-03-13T03:12:42;99795.03;;;9.37;100.00
9257;BME280;4665;51.368;6.782;2023-03-13T03:15:08;99808.16;;;9.47;100.00
9257;BME280;4665;51.368;6.782;2023-03-13T03:17:33;99819.94;;;9.53;100.00
9257;BME280;4665;51.368;6.782;2023-03-13T03:19:59;99820.44;;;9.48;100.00
9257;BME280;4665;51.368;6.782;2023-03-13T03:22:24;99818.44;;;9.50;100.00
9257;BME280;4665;51.368;6.782;2023-03-13T03:24:49;99811.13;;;9.52;100.00
9257;BME280;4665;51.368;6.782;2023-03-13T03:27:15;99809.13;;;9.54;100.00
9257;BME280;4665;51.368;6.782;2023-03-13T03:29:40;99808.47;;;9.52;100.00
9257;BME280;4665;51.368;6.782;2023-03-13T03:32:06;99805.47;;;9.55;100.00
9257;BME280;4665;51.368;6.782;2023-03-13T03:34:32;99807.13;;;9.56;100.00
9257;BME280;4665;51.368;6.782;2023-03-13T03:36:57;99809.44;;;9.59;100.00
9257;BME280;4665;51.368;6.782;2023-03-13T03:39:22;99811.09;;;9.60;100.00
9257;BME280;4665;51.368;6.782;2023-03-13T03:41:51;99808.44;;;9.60;100.00
9257;BME280;4665;51.368;6.782;2023-03-13T03:44:16;99796.63;;;9.63;100.00
9257;BME280;4665;51.368;6.782;2023-03-13T03:46:42;99808.94;;;9.64;100.00
9257;BME280;4665;51.368;6.782;2023-03-13T03:49:07;99807.75;;;9.66;100.00
9257;BME280;4665;51.368;6.782;2023-03-13T03:51:33;99807.41;;;9.69;100.00
9257;BME280;4665;51.368;6.782;2023-03-13T03:53:58;99820.38;;;9.73;100.00
9257;BME280;4665;51.368;6.782;2023-03-13T03:56:24;99815.88;;;9.73;100.00
9257;BME280;4665;51.368;6.782;2023-03-13T03:58:49;99822.63;;;9.84;100.00
9257;BME280;4665;51.368;6.782;2023-03-13T04:01:15;99813.13;;;9.89;100.00
9257;BME280;4665;51.368;6.782;2023-03-13T04:03:40;99815.75;;;9.98;100.00
9257;BME280;4665;51.368;6.782;2023-03-13T04:06:06;99811.56;;;10.03;100.00
9257;BME280;4665;51.368;6.782;2023-03-13T04:08:32;99807.38;;;10.09;100.00
9257;BME280;4665;51.368;6.782;2023-03-13T04:10:59;99797.75;;;10.08;100.00
9257;BME280;4665;51.368;6.782;2023-03-13T04:13:25;99795.03;;;10.16;100.00
9257;BME280;4665;51.368;6.782;2023-03-13T04:15:51;99791.84;;;10.21;100.00
9257;BME280;4665;51.368;6.782;2023-03-13T04:18:16;99791.13;;;10.27;100.00
9257;BME280;4665;51.368;6.782;2023-03-13T04:20:42;99773.31;;;10.36;100.00
9257;BME280;4665;51.368;6.782;2023-03-13T04:23:07;99772.59;;;10.42;100.00
9257;BME280;4665;51.368;6.782;2023-03-13T04:25:33;99768.84;;;10.51;100.00
9257;BME280;4665;51.368;6.782;2023-03-13T04:27:58;99772.38;;;10.51;100.00
9257;BME280;4665;51.368;6.782;2023-03-13T04:30:24;99762.81;;;10.57;100.00
9257;BME280;4665;51.368;6.782;2023-03-13T04:32:49;99770.81;;;10.57;100.00
9257;BME280;4665;51.368;6.782;2023-03-13T04:35:15;99771.63;;;10.58;100.00
9257;BME280;4665;51.368;6.782;2023-03-13T04:37:42;99756.97;;;10.62;100.00
9257;BME280;4665;51.368;6.782;2023-03-13T04:40:08;99754.66;;;10.59;100.00
9257;BME280;4665;51.368;6.782;2023-03-13T04:42:34;99760.28;;;10.64;100.00
9257;BME280;4665;51.368;6.782;2023-03-13T04:44:59;99757.91;;;10.69;100.00
9257;BME280;4665;51.368;6.782;2023-03-13T04:47:24;99758.72;;;10.69;100.00
9257;BME280;4665;51.368;6.782;2023-03-13T04:49:50;99754.09;;;10.86;100.00
9257;BME280;4665;51.368;6.782;2023-03-13T04:52:15;99752.91;;;10.89;100.00
9257;BME280;4665;51.368;6.782;2023-03-13T04:54:41;99759.50;;;10.93;100.00
9257;BME280;4665;51.368;6.782;2023-03-13T04:57:06;99741.16;;;10.98;100.00
9257;BME280;4665;51.368;6.782;2023-03-13T04:59:32;99737.63;;;10.98;100.00
9257;BME280;4665;51.368;6.782;2023-03-13T05:01:57;99747.75;;;11.02;100.00
9257;BME280;4665;51.368;6.782;2023-03-13T05:04:23;99728.09;;;11.18;100.00
9257;BME280;4665;51.368;6.782;2023-03-13T05:06:48;99734.34;;;11.25;100.00
9257;BME280;4665;51.368;6.782;2023-03-13T05:09:14;99725.13;;;11.28;100.00
9257;BME280;4665;51.368;6.782;2023-03-13T05:11:39;99719.72;;;11.36;100.00
9257;BME280;4665;51.368;6.782;2023-03-13T05:14:06;99719.56;;;11.37;100.00
9257;BME280;4665;51.368;6.782;2023-03-13T05:16:33;99717.06;;;11.36;100.00
9257;BME280;4665;51.368;6.782;2023-03-13T05:18:59;99712.19;;;11.40;100.00
9257;BME280;4665;51.368;6.782;2023-03-13T05:21:24;99716.75;;;11.46;100.00
9257;BME280;4665;51.368;6.782;2023-03-13T05:23:49;99713.44;;;11.44;100.00
9257;BME280;4665;51.368;6.782;2023-03-13T05:26:15;99709.59;;;11.46;100.00
9257;BME280;4665;51.368;6.782;2023-03-13T05:28:40;99709.78;;;11.45;100.00
9257;BME280;4665;51.368;6.782;2023-03-13T05:31:06;99707.78;;;11.47;100.00
9257;BME280;4665;51.368;6.782;2023-03-13T05:33:31;99708.66;;;11.54;100.00
9257;BME280;4665;51.368;6.782;2023-03-13T05:35:56;99708.19;;;11.50;100.00
9257;BME280;4665;51.368;6.782;2023-03-13T05:38:22;99712.72;;;11.50;100.00
9257;BME280;4665;51.368;6.782;2023-03-13T05:40:47;99701.88;;;11.51;100.00
9257;BME280;4665;51.368;6.782;2023-03-13T05:43:13;99715.72;;;11.62;100.00
9257;BME280;4665;51.368;6.782;2023-03-13T05:45:38;99714.53;;;11.64;100.00
9257;BME280;4665;51.368;6.782;2023-03-13T05:48:04;99710.56;;;11.60;100.00
9257;BME280;4665;51.368;6.782;2023-03-13T05:50:29;99713.88;;;11.62;100.00
9257;BME280;4665;51.368;6.782;2023-03-13T05:52:55;99699.25;;;11.73;100.00
9257;BME280;4665;51.368;6.782;2023-03-13T05:55:20;99699.25;;;11.73;100.00
9257;BME280;4665;51.368;6.782;2023-03-13T05:57:47;99701.72;;;11.74;100.00
9257;BME280;4665;51.368;6.782;2023-03-13T06:00:14;99691.09;;;11.81;100.00
9257;BME280;4665;51.368;6.782;2023-03-13T06:02:40;99690.22;;;11.89;100.00
9257;BME280;4665;51.368;6.782;2023-03-13T06:05:07;99688.91;;;11.85;100.00
9257;BME280;4665;51.368;6.782;2023-03-13T06:07:32;99695.56;;;11.89;100.00
9257;BME280;4665;51.368;6.782;2023-03-13T06:09:58;99689.00;;;11.91;100.00
9257;BME280;4665;51.368;6.782;2023-03-13T06:12:23;99682.00;;;11.90;100.00
9257;BME280;4665;51.368;6.782;2023-03-13T06:14:49;99687.78;;;11.94;100.00
9257;BME280;4665;51.368;6.782;2023-03-13T06:17:14;99685.75;;;11.96;100.00
9257;BME280;4665;51.368;6.782;2023-03-13T06:19:40;99679.16;;;11.92;100.00
9257;BME280;4665;51.368;6.782;2023-03-13T06:22:05;99674.84;;;11.91;100.00
9257;BME280;4665;51.368;6.782;2023-03-13T06:24:31;99673.41;;;11.95;100.00
9257;BME280;4665;51.368;6.782;2023-03-13T06:26:56;99678.59;;;11.96;100.00
9257;BME280;4665;51.368;6.782;2023-03-13T06:29:22;99678.25;;;12.06;100.00
9257;BME280;4665;51.368;6.782;2023-03-13T06:31:49;99669.25;;;12.07;100.00
9257;BME280;4665;51.368;6.782;2023-03-13T06:34:15;99664.78;;;12.14;100.00
9257;BME280;4665;51.368;6.782;2023-03-13T06:36:41;99686.34;;;12.13;100.00
9257;BME280;4665;51.368;6.782;2023-03-13T06:39:07;99673.69;;;12.21;100.00
9257;BME280;4665;51.368;6.782;2023-03-13T06:41:33;99688.94;;;12.28;100.00
9257;BME280;4665;51.368;6.782;2023-03-13T06:43:58;99688.09;;;12.27;100.00
9257;BME280;4665;51.368;6.782;2023-03-13T06:46:24;99693.91;;;12.31;100.00
9257;BME280;4665;51.368;6.782;2023-03-13T06:48:50;99688.94;;;12.28;100.00
9257;BME280;4665;51.368;6.782;2023-03-13T06:51:18;99692.75;;;12.40;100.00
9257;BME280;4665;51.368;6.782;2023-03-13T06:53:43;99695.34;;;12.33;100.00
9257;BME280;4665;51.368;6.782;2023-03-13T06:56:09;99693.16;;;12.43;100.00
9257;BME280;4665;51.368;6.782;2023-03-13T06:58:35;99686.00;;;12.44;100.00
9257;BME280;4665;51.368;6.782;2023-03-13T07:01:06;99691.94;;;12.46;100.00
9257;BME280;4665;51.368;6.782;2023-03-13T07:03:34;99680.25;;;12.47;100.00
9257;BME280;4665;51.368;6.782;2023-03-13T07:06:00;99686.59;;;12.46;100.00
9257;BME280;4665;51.368;6.782;2023-03-13T07:08:26;99683.34;;;12.51;100.00
9257;BME280;4665;51.368;6.782;2023-03-13T07:10:53;99678.22;;;12.49;100.00
9257;BME280;4665;51.368;6.782;2023-03-13T07:13:19;99684.78;;;12.47;100.00
9257;BME280;4665;51.368;6.782;2023-03-13T07:15:46;99679.22;;;12.48;100.00
9257;BME280;4665;51.368;6.782;2023-03-13T07:18:13;99664.81;;;12.42;100.00
9257;BME280;4665;51.368;6.782;2023-03-13T07:20:38;99674.28;;;12.45;100.00
9257;BME280;4665;51.368;6.782;2023-03-13T07:23:03;99672.50;;;12.52;100.00
9257;BME280;4665;51.368;6.782;2023-03-13T07:25:29;99661.28;;;12.63;100.00
9257;BME280;4665;51.368;6.782;2023-03-13T07:27:54;99666.63;;;12.63;100.00
9257;BME280;4665;51.368;6.782;2023-03-13T07:30:21;99645.88;;;12.66;100.00
9257;BME280;4665;51.368;6.782;2023-03-13T07:32:46;99654.75;;;12.73;100.00
9257;BME280;4665;51.368;6.782;2023-03-13T07:35:12;99643.84;;;12.68;100.00
9257;BME280;4665;51.368;6.782;2023-03-13T07:37:37;99634.59;;;12.70;100.00
9257;BME280;4665;51.368;6.782;2023-03-13T07:40:03;99641.63;;;12.78;100.00
9257;BME280;4665;51.368;6.782;2023-03-13T07:42:29;99638.69;;;12.66;100.00
9257;BME280;4665;51.368;6.782;2023-03-13T07:44:54;99636.00;;;12.66;100.00
9257;BME280;4665;51.368;6.782;2023-03-13T07:47:20;99637.09;;;12.72;100.00
9257;BME280;4665;51.368;6.782;2023-03-13T07:49:45;99634.06;;;12.81;100.00
9257;BME280;4665;51.368;6.782;2023-03-13T07:52:17;99636.31;;;12.84;100.00
9257;BME280;4665;51.368;6.782;2023-03-13T07:54:43;99639.19;;;12.83;100.00
9257;BME280;4665;51.368;6.782;2023-03-13T07:57:29;99637.16;;;12.85;100.00
9257;BME280;4665;51.368;6.782;2023-03-13T07:59:54;99642.13;;;12.88;100.00
9257;BME280;4665;51.368;6.782;2023-03-13T08:02:38;99640.44;;;12.87;100.00
9257;BME280;4665;51.368;6.782;2023-03-13T08:05:04;99631.44;;;12.88;100.00
9257;BME280;4665;51.368;6.782;2023-03-13T08:07:38;99632.88;;;12.91;100.00
9257;BME280;4665;51.368;6.782;2023-03-13T08:10:04;99630.38;;;12.89;100.00
9257;BME280;4665;51.368;6.782;2023-03-13T08:12:59;99625.69;;;12.91;100.00
9257;BME280;4665;51.368;6.782;2023-03-13T08:15:25;99627.56;;;12.97;100.00
9257;BME280;4665;51.368;6.782;2023-03-13T08:18:06;99623.25;;;13.03;100.00
9257;BME280;4665;51.368;6.782;2023-03-13T08:20:31;99621.16;;;12.92;100.00
9257;BME280;4665;51.368;6.782;2023-03-13T08:22:59;99636.78;;;12.95;100.00
9257;BME280;4665;51.368;6.782;2023-03-13T08:25:24;99624.63;;;12.92;100.00
9257;BME280;4665;51.368;6.782;2023-03-13T08:31:11;99628.75;;;12.95;100.00
9257;BME280;4665;51.368;6.782;2023-03-13T08:33:42;99632.09;;;13.03;100.00
9257;BME280;4665;51.368;6.782;2023-03-13T08:36:16;99639.34;;;13.10;100.00
9257;BME280;4665;51.368;6.782;2023-03-13T08:38:57;99640.78;;;13.12;100.00
9257;BME280;4665;51.368;6.782;2023-03-13T08:41:25;99638.97;;;13.19;100.00
9257;BME280;4665;51.368;6.782;2023-03-13T08:43:59;99634.63;;;13.12;100.00
9257;BME280;4665;51.368;6.782;2023-03-13T08:46:25;99647.63;;;13.21;100.00
9257;BME280;4665;51.368;6.782;2023-03-13T08:48:52;99650.47;;;13.20;100.00
9257;BME280;4665;51.368;6.782;2023-03-13T08:51:27;99638.63;;;13.29;100.00
9257;BME280;4665;51.368;6.782;2023-03-13T08:53:54;99642.97;;;13.30;100.00
9257;BME280;4665;51.368;6.782;2023-03-13T08:56:22;99632.03;;;13.32;100.00
9257;BME280;4665;51.368;6.782;2023-03-13T08:58:49;99638.44;;;13.31;100.00
9257;BME280;4665;51.368;6.782;2023-03-13T09:01:15;99630.81;;;13.34;100.00
9257;BME280;4665;51.368;6.782;2023-03-13T09:03:41;99619.72;;;13.31;100.00
9257;BME280;4665;51.368;6.782;2023-03-13T09:06:08;99622.78;;;13.34;100.00
9257;BME280;4665;51.368;6.782;2023-03-13T09:08:35;99622.78;;;13.34;100.00
9257;BME280;4665;51.368;6.782;2023-03-13T09:11:03;99624.25;;;13.43;100.00
9257;BME280;4665;51.368;6.782;2023-03-13T09:13:31;99610.28;;;13.41;100.00
9257;BME280;4665;51.368;6.782;2023-03-13T09:15:59;99626.94;;;13.43;100.00
9257;BME280;4665;51.368;6.782;2023-03-13T09:18:25;99615.41;;;13.43;100.00
9257;BME280;4665;51.368;6.782;2023-03-13T09:20:54;99604.31;;;13.39;100.00
9257;BME280;4665;51.368;6.782;2023-03-13T09:23:20;99604.34;;;13.46;100.00
9257;BME280;4665;51.368;6.782;2023-03-13T09:25:48;99605.38;;;13.52;100.00
9257;BME280;4665;51.368;6.782;2023-03-13T09:28:14;99600.44;;;13.49;100.00
9257;BME280;4665;51.368;6.782;2023-03-13T09:30:39;99597.75;;;13.49;100.00
9257;BME280;4665;51.368;6.782;2023-03-13T09:33:05;99604.53;;;13.44;100.00
9257;BME280;4665;51.368;6.782;2023-03-13T09:35:30;99594.63;;;13.38;100.00
9257;BME280;4665;51.368;6.782;2023-03-13T09:37:56;99610.66;;;13.38;100.00
9257;BME280;4665;51.368;6.782;2023-03-13T09:40:23;99610.28;;;13.35;100.00
9257;BME280;4665;51.368;6.782;2023-03-13T09:42:56;99606.28;;;13.24;100.00
9257;BME280;4665;51.368;6.782;2023-03-13T09:48:07;99595.53;;;13.11;100.00
9257;BME280;4665;51.368;6.782;2023-03-13T09:50:43;99588.72;;;13.08;100.00
9257;BME280;4665;51.368;6.782;2023-03-13T09:53:23;99589.16;;;13.12;100.00
9257;BME280;4665;51.368;6.782;2023-03-13T09:55:51;99587.13;;;13.14;100.00
9257;BME280;4665;51.368;6.782;2023-03-13T09:58:21;99579.69;;;13.16;100.00
9257;BME280;4665;51.368;6.782;2023-03-13T10:00:51;99582.38;;;13.16;100.00
9257;BME280;4665;51.368;6.782;2023-03-13T10:03:33;99564.50;;;13.16;100.00
9257;BME280;4665;51.368;6.782;2023-03-13T10:06:09;99583.66;;;13.26;100.00
9257;BME280;4665;51.368;6.782;2023-03-13T10:08:37;99575.69;;;13.33;100.00
9257;BME280;4665;51.368;6.782;2023-03-13T10:11:08;99560.91;;;13.37;100.00
9257;BME280;4665;51.368;6.782;2023-03-13T10:16:20;99547.78;;;13.62;100.00
9257;BME280;4665;51.368;6.782;2023-03-13T10:18:53;99546.31;;;13.73;100.00
9257;BME280;4665;51.368;6.782;2023-03-13T10:21:22;99543.22;;;13.83;100.00
9257;BME280;4665;51.368;6.782;2023-03-13T10:24:05;99534.81;;;13.93;100.00
9257;BME280;4665;51.368;6.782;2023-03-13T10:26:36;99533.16;;;14.05;100.00
9257;BME280;4665;51.368;6.782;2023-03-13T10:29:25;99515.22;;;14.12;100.00
9257;BME280;4665;51.368;6.782;2023-03-13T10:32:05;99522.63;;;14.23;100.00
9257;BME280;4665;51.368;6.782;2023-03-13T10:37:11;99512.25;;;14.53;100.00
9257;BME280;4665;51.368;6.782;2023-03-13T10:39:38;99508.97;;;14.58;100.00
9257;BME280;4665;51.368;6.782;2023-03-13T10:42:16;99520.03;;;14.68;100.00
9257;BME280;4665;51.368;6.782;2023-03-13T10:44:44;99508.06;;;14.71;100.00
9257;BME280;4665;51.368;6.782;2023-03-13T10:47:12;99481.25;;;14.78;100.00
9257;BME280;4665;51.368;6.782;2023-03-13T10:49:51;99500.25;;;14.76;100.00
9257;BME280;4665;51.368;6.782;2023-03-13T10:52:42;99488.28;;;14.79;100.00
9257;BME280;4665;51.368;6.782;2023-03-13T10:55:16;99490.50;;;14.82;100.00
9257;BME280;4665;51.368;6.782;2023-03-13T10:57:57;99482.25;;;14.90;100.00
9257;BME280;4665;51.368;6.782;2023-03-13T11:00:29;99481.78;;;14.93;100.00
9257;BME280;4665;51.368;6.782;2023-03-13T11:02:57;99470.88;;;14.94;100.00
9257;BME280;4665;51.368;6.782;2023-03-13T11:07:53;99471.00;;;15.06;100.00
9257;BME280;4665;51.368;6.782;2023-03-13T11:10:23;99474.22;;;15.15;100.00
9257;BME280;4665;51.368;6.782;2023-03-13T11:12:53;99474.63;;;15.19;100.00
9257;BME280;4665;51.368;6.782;2023-03-13T11:18:04;99458.09;;;15.22;100.00
9257;BME280;4665;51.368;6.782;2023-03-13T11:20:38;99461.38;;;15.24;100.00
9257;BME280;4665;51.368;6.782;2023-03-13T11:23:08;99435.00;;;15.21;100.00
9257;BME280;4665;51.368;6.782;2023-03-13T11:31:27;99442.06;;;15.40;100.00
9257;BME280;4665;51.368;6.782;2023-03-13T11:36:39;99421.81;;;15.44;100.00
9257;BME280;4665;51.368;6.782;2023-03-13T11:53:29;99373.63;;;16.18;100.00
9257;BME280;4665;51.368;6.782;2023-03-13T12:01:25;99372.69;;;16.24;100.00
9257;BME280;4665;51.368;6.782;2023-03-13T12:04:05;99363.28;;;16.15;100.00
9257;BME280;4665;51.368;6.782;2023-03-13T12:06:50;99356.09;;;16.15;100.00
9257;BME280;4665;51.368;6.782;2023-03-13T12:09:29;99368.66;;;16.15;100.00
9257;BME280;4665;51.368;6.782;2023-03-13T12:14:40;99356.38;;;16.07;100.00
9257;BME280;4665;51.368;6.782;2023-03-13T12:19:37;99340.41;;;15.94;100.00
9257;BME280;4665;51.368;6.782;2023-03-13T12:22:40;99326.25;;;15.87;100.00
9257;BME280;4665;51.368;6.782;2023-03-13T12:27:46;99344.06;;;15.99;100.00
9257;BME280;4665;51.368;6.782;2023-03-13T12:32:57;99321.78;;;15.99;100.00
9257;BME280;4665;51.368;6.782;2023-03-13T12:35:33;99332.78;;;16.09;100.00
9257;BME280;4665;51.368;6.782;2023-03-13T12:38:07;99324.16;;;16.07;100.00
9257;BME280;4665;51.368;6.782;2023-03-13T12:43:51;99318.31;;;16.10;100.00
9257;BME280;4665;51.368;6.782;2023-03-13T12:49:38;99325.28;;;15.99;100.00
9257;BME280;4665;51.368;6.782;2023-03-13T13:00:38;99305.81;;;16.04;100.00
9257;BME280;4665;51.368;6.782;2023-03-13T13:05:58;99273.03;;;16.14;100.00
9257;BME280;4665;51.368;6.782;2023-03-13T13:08:25;99286.47;;;16.14;100.00
9257;BME280;4665;51.368;6.782;2023-03-13T13:10:51;99272.22;;;16.13;100.00
9257;BME280;4665;51.368;6.782;2023-03-13T13:13:27;99274.53;;;16.10;100.00
9257;BME280;4665;51.368;6.782;2023-03-13T13:16:05;99266.34;;;16.05;100.00
9257;BME280;4665;51.368;6.782;2023-03-13T13:18:33;99255.03;;;16.14;100.00
9257;BME280;4665;51.368;6.782;2023-03-13T13:23:40;99256.25;;;16.30;100.00
9257;BME280;4665;51.368;6.782;2023-03-13T13:28:56;99262.56;;;16.36;100.00
9257;BME280;4665;51.368;6.782;2023-03-13T13:39:48;99250.28;;;16.28;100.00
9257;BME280;4665;51.368;6.782;2023-03-13T13:47:42;99246.38;;;16.12;100.00
9257;BME280;4665;51.368;6.782;2023-03-13T13:50:25;99229.91;;;16.09;100.00
9257;BME280;4665;51.368;6.782;2023-03-13T13:52:51;99223.50;;;16.10;100.00
9257;BME280;4665;51.368;6.782;2023-03-13T13:55:42;99223.81;;;16.02;100.00
9257;BME280;4665;51.368;6.782;2023-03-13T13:58:31;99217.03;;;15.99;100.00
9257;BME280;4665;51.368;6.782;2023-03-13T14:01:00;99214.38;;;15.99;100.00
9257;BME280;4665;51.368;6.782;2023-03-13T14:03:31;99221.56;;;15.98;100.00
9257;BME280;4665;51.368;6.782;2023-03-13T14:06:30;99222.25;;;15.94;100.00
9257;BME280;4665;51.368;6.782;2023-03-13T14:09:18;99215.47;;;15.91;100.00
9257;BME280;4665;51.368;6.782;2023-03-13T14:11:46;99210.19;;;15.85;100.00
9257;BME280;4665;51.368;6.782;2023-03-13T14:14:17;99201.41;;;15.77;100.00
9257;BME280;4665;51.368;6.782;2023-03-13T14:16:48;99200.97;;;15.81;100.00
9257;BME280;4665;51.368;6.782;2023-03-13T14:21:48;99192.75;;;15.75;100.00
9257;BME280;4665;51.368;6.782;2023-03-13T14:24:14;99175.84;;;15.75;100.00
9257;BME280;4665;51.368;6.782;2023-03-13T14:26:44;99178.81;;;15.67;100.00
9257;BME280;4665;51.368;6.782;2023-03-13T14:29:16;99175.69;;;15.70;100.00
9257;BME280;4665;51.368;6.782;2023-03-13T14:31:49;99169.88;;;15.73;100.00
9257;BME280;4665;51.368;6.782;2023-03-13T14:34:16;99166.38;;;15.72;100.00
9257;BME280;4665;51.368;6.782;2023-03-13T14:41:47;99166.50;;;15.59;100.00
9257;BME280;4665;51.368;6.782;2023-03-13T14:44:24;99170.72;;;15.55;100.00
9257;BME280;4665;51.368;6.782;2023-03-13T14:46:56;99184.72;;;15.39;100.00
9257;BME280;4665;51.368;6.782;2023-03-13T14:49:26;99182.13;;;15.32;100.00
9257;BME280;4665;51.368;6.782;2023-03-13T14:52:01;99194.94;;;15.30;100.00
9257;BME280;4665;51.368;6.782;2023-03-13T14:57:03;99171.56;;;15.19;100.00
9257;BME280;4665;51.368;6.782;2023-03-13T15:02:51;99164.63;;;15.29;100.00
9257;BME280;4665;51.368;6.782;2023-03-13T15:05:36;99152.63;;;15.32;100.00
9257;BME280;4665;51.368;6.782;2023-03-13T15:08:01;99147.53;;;15.42;100.00
9257;BME280;4665;51.368;6.782;2023-03-13T15:10:33;99156.66;;;15.41;100.00
9257;BME280;4665;51.368;6.782;2023-03-13T15:13:34;99151.13;;;15.36;100.00
9257;BME280;4665;51.368;6.782;2023-03-13T15:16:02;99140.63;;;15.34;100.00